Time;durP1;ratioP1;P1;durP2;ratioP2;P2;SDS_P1;SDS_P2;PMS_P1;PMS_P2;Temp;Humidity;BMP_temperature;BMP_pressure;BME280_temperature;BME280_humidity;BME280_pressure;Samples;Min_cycle;Max_cycle;Signal;HPM_P1;HPM_P2
2023/04/23 00:01:57;;;;;;;44.22;30.83;;;;;;;8.01;100.00;100581.50;5029010;28;20036;-73
2023/04/23 00:04:24;;;;;;;48.22;31.95;;;;;;;8.01;100.00;100579.69;5052737;28;20053;-72
2023/04/23 00:06:51;;;;;;;45.55;31.00;;;;;;;8.00;100.00;100575.28;5033308;28;20024;-73
2023/04/23 00:09:17;;;;;;;46.05;30.67;;;;;;;8.00;100.00;100577.97;5034388;28;20545;-73
2023/04/23 00:11:43;;;;;;;41.85;29.00;;;;;;;7.99;100.00;100573.56;5050055;28;20495;-73
2023/04/23 00:14:10;;;;;;;46.92;32.45;;;;;;;7.99;100.00;100573.56;5034620;28;20056;-73
2023/04/23 00:16:36;;;;;;;44.42;31.10;;;;;;;8.00;100.00;100569.94;5032824;28;20024;-73
2023/04/23 00:19:01;;;;;;;45.63;30.27;;;;;;;8.01;100.00;100570.81;5033681;28;20392;-73
2023/04/23 00:21:27;;;;;;;46.80;29.65;;;;;;;8.00;100.00;100561.91;5050656;28;20053;-74
2023/04/23 00:23:52;;;;;;;40.67;27.73;;;;;;;8.00;100.00;100563.72;5049424;28;20047;-73
2023/04/23 00:26:17;;;;;;;45.95;29.92;;;;;;;8.01;100.00;100563.63;5029874;28;20049;-72
2023/04/23 00:28:43;;;;;;;45.50;31.38;;;;;;;8.03;100.00;100568.88;5026803;28;20064;-73
2023/04/23 00:31:08;;;;;;;40.45;28.52;;;;;;;8.02;100.00;100565.34;5031453;28;20025;-74
2023/04/23 00:33:33;;;;;;;38.15;27.33;;;;;;;8.02;100.00;100570.69;5029542;28;20036;-72
2023/04/23 00:35:59;;;;;;;41.95;27.52;;;;;;;8.00;100.00;100559.22;5030310;28;20029;-73
2023/04/23 00:38:25;;;;;;;41.97;27.35;;;;;;;8.00;100.00;100564.56;5031117;28;20048;-74
2023/04/23 00:40:51;;;;;;;40.50;27.35;;;;;;;8.00;100.00;100559.22;5032188;28;20078;-73
2023/04/23 00:43:16;;;;;;;38.58;25.92;;;;;;;8.00;100.00;100555.69;5030493;28;20108;-73
2023/04/23 00:45:41;;;;;;;43.50;27.00;;;;;;;8.00;100.00;100553.88;5030549;28;20033;-73
2023/04/23 00:48:07;;;;;;;39.42;27.45;;;;;;;8.00;100.00;100548.53;5028967;28;20026;-73
2023/04/23 00:50:32;;;;;;;41.13;26.75;;;;;;;8.01;100.00;100542.22;5030653;28;20057;-72
2023/04/23 00:52:58;;;;;;;36.95;26.02;;;;;;;8.03;100.00;100542.09;5030899;28;20025;-73
2023/04/23 00:55:24;;;;;;;38.22;25.30;;;;;;;8.04;100.00;100542.00;5029235;28;20079;-72
2023/04/23 00:57:49;;;;;;;37.45;25.20;;;;;;;8.09;100.00;100540.84;5030182;28;20030;-73
2023/04/23 01:00:15;;;;;;;39.28;26.88;;;;;;;8.10;100.00;100537.22;5030326;28;20112;-74
2023/04/23 01:02:42;;;;;;;37.40;25.33;;;;;;;8.12;100.00;100527.25;5030726;28;20026;-72
2023/04/23 01:05:10;;;;;;;37.47;25.38;;;;;;;8.16;100.00;100528.75;5028839;28;20113;-72
2023/04/23 01:07:36;;;;;;;40.30;25.75;;;;;;;8.15;100.00;100519.84;5026866;28;20560;-72
2023/04/23 01:10:03;;;;;;;36.53;25.50;;;;;;;8.17;100.00;100522.41;5030274;28;20030;-72
2023/04/23 01:12:29;;;;;;;36.58;24.35;;;;;;;8.19;100.00;100521.34;5028168;28;20028;-72
2023/04/23 01:14:55;;;;;;;40.40;25.95;;;;;;;8.20;100.00;100522.25;5030464;28;20021;-73
2023/04/23 01:17:21;;;;;;;38.90;23.92;;;;;;;8.19;100.00;100521.34;5029277;28;20043;-73
2023/04/23 01:19:47;;;;;;;38.40;25.35;;;;;;;8.20;100.00;100520.41;5028901;28;20021;-74
2023/04/23 01:22:14;;;;;;;40.25;25.63;;;;;;;8.19;100.00;100513.31;5028879;28;20451;-72
2023/04/23 01:24:41;;;;;;;37.30;24.67;;;;;;;8.19;100.00;100512.47;5034983;28;20049;-72
2023/04/23 01:27:07;;;;;;;40.25;25.95;;;;;;;8.19;100.00;100517.84;5031295;28;20048;-73
2023/04/23 01:29:33;;;;;;;36.00;23.67;;;;;;;8.18;100.00;100510.75;5049126;28;20425;-73
2023/04/23 01:31:59;;;;;;;37.13;25.08;;;;;;;8.19;100.00;100512.47;5032808;28;20029;-73
2023/04/23 01:34:24;;;;;;;35.95;24.50;;;;;;;8.17;100.00;100503.69;5033172;28;20542;-73
2023/04/23 01:36:50;;;;;;;36.47;24.20;;;;;;;8.20;100.00;100514.22;5034056;28;20403;-73
2023/04/23 01:39:16;;;;;;;35.20;23.73;;;;;;;8.19;100.00;100516.00;5031919;28;20029;-73
2023/04/23 01:41:42;;;;;;;33.42;23.50;;;;;;;8.20;100.00;100508.84;5032838;28;20021;-73
2023/04/23 01:44:07;;;;;;;34.42;24.42;;;;;;;8.22;100.00;100505.06;5051335;28;20082;-73
2023/04/23 01:46:33;;;;;;;36.85;23.75;;;;;;;8.25;100.00;100501.34;5050930;28;20037;-73
2023/04/23 01:48:58;;;;;;;35.88;23.45;;;;;;;8.29;100.00;100505.53;5033576;28;20033;-72
2023/04/23 01:51:25;;;;;;;36.47;23.40;;;;;;;8.31;100.00;100500.06;5030147;28;20040;-73
2023/04/23 01:53:51;;;;;;;38.85;22.83;;;;;;;8.31;100.00;100506.25;5033397;28;20041;-72
2023/04/23 01:56:21;;;;;;;35.00;23.35;;;;;;;8.31;100.00;100508.94;5033527;28;20043;-73
2023/04/23 01:58:47;;;;;;;34.35;23.05;;;;;;;8.31;100.00;100508.94;5032388;28;20162;-73
2023/04/23 02:01:12;;;;;;;35.85;23.88;;;;;;;8.30;100.00;100511.72;5029916;28;20108;-72
2023/04/23 02:03:37;;;;;;;35.75;23.45;;;;;;;8.29;100.00;100508.19;5028496;28;20025;-73
2023/04/23 02:06:03;;;;;;;33.78;21.42;;;;;;;8.24;100.00;100507.66;5032091;28;20148;-73
2023/04/23 02:08:29;;;;;;;35.15;23.60;;;;;;;8.23;100.00;100514.84;5048830;28;20472;-73
2023/04/23 02:10:55;;;;;;;34.65;21.00;;;;;;;8.22;100.00;100507.75;5047722;28;20119;-73
2023/04/23 02:13:20;;;;;;;33.17;21.80;;;;;;;8.22;100.00;100506.91;5031337;28;20215;-73
2023/04/23 02:15:45;;;;;;;33.65;19.08;;;;;;;8.22;100.00;100496.19;5032488;28;20412;-72
2023/04/23 02:18:11;;;;;;;33.25;20.05;;;;;;;8.23;100.00;100490.75;5032272;28;20025;-73
2023/04/23 02:20:39;;;;;;;33.45;21.45;;;;;;;8.23;100.00;100490.75;5050019;28;20520;-73
2023/04/23 02:23:07;;;;;;;33.10;21.50;;;;;;;8.26;100.00;100487.00;5029140;28;20139;-73
2023/04/23 02:25:33;;;;;;;34.88;20.35;;;;;;;8.27;100.00;100499.41;5050191;28;20040;-74
2023/04/23 02:28:00;;;;;;;35.72;22.35;;;;;;;8.28;100.00;100501.13;5032883;28;20373;-73
2023/04/23 02:30:26;;;;;;;32.15;19.45;;;;;;;8.30;100.00;100501.03;5045707;28;20033;-73
2023/04/23 02:32:51;;;;;;;32.72;19.98;;;;;;;8.31;100.00;100498.22;5030522;28;20460;-72
2023/04/23 02:35:16;;;;;;;32.20;21.75;;;;;;;8.30;100.00;100491.19;5031121;28;20039;-73
2023/04/23 02:37:42;;;;;;;31.95;20.67;;;;;;;8.30;100.00;100499.22;5048172;28;20082;-73
2023/04/23 02:40:08;;;;;;;36.28;21.42;;;;;;;8.28;100.00;100487.75;5031525;28;20047;-73
2023/04/23 02:42:33;;;;;;;33.90;21.20;;;;;;;8.29;100.00;100492.13;5048064;28;20539;-72
2023/04/23 02:44:58;;;;;;;32.67;20.90;;;;;;;8.29;100.00;100484.09;5049120;28;20044;-73
2023/04/23 02:47:24;;;;;;;32.05;19.55;;;;;;;8.29;100.00;100492.13;5049071;28;20037;-73
2023/04/23 02:49:49;;;;;;;32.95;21.00;;;;;;;8.31;100.00;100484.84;5049643;28;20029;-72
2023/04/23 02:52:15;;;;;;;33.38;20.80;;;;;;;8.32;100.00;100480.38;5030224;28;20147;-72
2023/04/23 02:54:40;;;;;;;33.97;21.98;;;;;;;8.34;100.00;100486.47;5028838;28;20458;-73
2023/04/23 02:57:05;;;;;;;31.58;20.88;;;;;;;8.33;100.00;100485.63;5029957;28;20123;-73
2023/04/23 02:59:31;;;;;;;31.52;19.25;;;;;;;8.35;100.00;100481.00;5030862;28;20112;-73
2023/04/23 03:01:56;;;;;;;34.17;21.05;;;;;;;8.36;100.00;100481.84;5029548;28;20061;-73
2023/04/23 03:04:21;;;;;;;29.60;18.73;;;;;;;8.38;100.00;100480.78;5048603;28;20056;-74
2023/04/23 03:06:47;;;;;;;30.25;20.80;;;;;;;8.39;100.00;100479.81;5048751;28;20047;-73
2023/04/23 03:09:12;;;;;;;32.25;20.48;;;;;;;8.39;100.00;100479.81;5031761;28;20020;-74
2023/04/23 03:11:38;;;;;;;29.85;18.65;;;;;;;8.40;100.00;100475.31;5046835;28;20028;-73
2023/04/23 03:14:03;;;;;;;33.55;20.17;;;;;;;8.36;100.00;100463.97;5050199;28;20100;-72
2023/04/23 03:16:30;;;;;;;29.17;20.08;;;;;;;8.36;100.00;100472.00;5033225;28;20036;-72
2023/04/23 03:18:55;;;;;;;31.00;19.45;;;;;;;8.37;100.00;100472.84;5053766;28;20397;-74
2023/04/23 03:21:21;;;;;;;34.17;20.45;;;;;;;8.36;100.00;100458.63;5045960;28;20110;-73
2023/04/23 03:23:46;;;;;;;28.95;18.92;;;;;;;8.37;100.00;100462.13;5035245;28;20070;-72
2023/04/23 03:26:11;;;;;;;29.80;18.80;;;;;;;8.37;100.00;100460.31;5047709;28;20069;-72
2023/04/23 03:28:37;;;;;;;33.80;18.50;;;;;;;8.39;100.00;100462.91;5051857;28;20098;-72
2023/04/23 03:31:02;;;;;;;31.15;19.15;;;;;;;8.39;100.00;100471.78;5034540;28;20059;-73
2023/04/23 03:33:27;;;;;;;28.40;17.20;;;;;;;8.43;100.00;100458.19;5035337;28;20371;-73
2023/04/23 03:35:53;;;;;;;32.80;19.13;;;;;;;8.42;100.00;100465.38;5054262;28;20032;-73
2023/04/23 03:38:18;;;;;;;32.83;20.98;;;;;;;8.44;100.00;100459.91;5034360;28;20032;-74
2023/04/23 03:40:44;;;;;;;32.17;20.75;;;;;;;8.46;100.00;100463.34;5034551;28;20048;-72
2023/04/23 03:43:09;;;;;;;31.15;19.55;;;;;;;8.45;100.00;100461.63;5034059;28;20454;-72
2023/04/23 03:45:35;;;;;;;31.38;19.35;;;;;;;8.46;100.00;100460.66;5053732;28;20052;-73
2023/04/23 03:48:00;;;;;;;31.95;20.30;;;;;;;8.50;100.00;100459.50;5036265;28;20067;-72
2023/04/23 03:50:25;;;;;;;31.40;19.95;;;;;;;8.49;100.00;100461.31;5053506;28;20044;-73
2023/04/23 03:52:50;;;;;;;30.23;19.08;;;;;;;8.50;100.00;100463.00;5033979;28;20068;-73
2023/04/23 03:55:16;;;;;;;31.15;19.63;;;;;;;8.51;100.00;100461.22;5053442;28;20033;-73
2023/04/23 03:57:41;;;;;;;29.75;19.98;;;;;;;8.53;100.00;100461.94;5035644;28;20028;-73
2023/04/23 04:00:07;;;;;;;31.88;19.20;;;;;;;8.52;100.00;100465.59;5035005;28;20028;-73
2023/04/23 04:02:33;;;;;;;31.27;18.92;;;;;;;8.53;100.00;100459.28;5050314;28;20028;-72
2023/04/23 04:04:58;;;;;;;29.63;19.23;;;;;;;8.55;100.00;100468.03;5031657;28;20035;-73
2023/04/23 04:07:23;;;;;;;30.98;19.20;;;;;;;8.53;100.00;100469.97;5033232;28;20120;-73
2023/04/23 04:09:48;;;;;;;30.17;18.48;;;;;;;8.51;100.00;100463.91;5051811;28;20075;-73
2023/04/23 04:12:15;;;;;;;29.77;18.92;;;;;;;8.51;100.00;100471.94;5034363;28;20118;-74
2023/04/23 04:14:41;;;;;;;31.70;20.05;;;;;;;8.50;100.00;100468.38;5034326;28;20025;-72
2023/04/23 04:17:07;;;;;;;30.50;18.77;;;;;;;8.48;100.00;100466.78;5052674;28;20459;-72
2023/04/23 04:19:32;;;;;;;29.83;17.80;;;;;;;8.47;100.00;100481.13;5050801;28;20059;-73
2023/04/23 04:21:57;;;;;;;30.67;19.33;;;;;;;8.44;100.00;100468.81;5033275;28;20049;-74
2023/04/23 04:24:24;;;;;;;30.73;18.83;;;;;;;8.44;100.00;100479.53;5033448;28;20037;-73
2023/04/23 04:26:51;;;;;;;30.15;18.92;;;;;;;8.43;100.00;100474.25;5050692;28;20047;-72
2023/04/23 04:29:18;;;;;;;29.75;18.23;;;;;;;8.40;100.00;100478.88;5051264;28;20711;-73
2023/04/23 04:31:45;;;;;;;29.98;17.73;;;;;;;8.42;100.00;100485.91;5033381;28;20031;-73
2023/04/23 04:34:13;;;;;;;31.05;19.80;;;;;;;8.39;100.00;100469.09;5051192;28;20036;-73
2023/04/23 04:36:38;;;;;;;29.80;18.27;;;;;;;8.39;100.00;100462.91;5052198;28;20028;-72
2023/04/23 04:39:04;;;;;;;30.27;19.50;;;;;;;8.40;100.00;100468.16;5034513;28;20029;-73
2023/04/23 04:41:29;;;;;;;30.45;18.77;;;;;;;8.39;100.00;100470.94;5050186;28;20574;-72
2023/04/23 04:43:54;;;;;;;32.85;19.33;;;;;;;8.39;100.00;100468.25;5049273;28;20037;-74
2023/04/23 04:46:20;;;;;;;32.42;19.25;;;;;;;8.37;100.00;100475.53;5030815;28;20100;-73
2023/04/23 04:48:46;;;;;;;31.35;18.67;;;;;;;8.35;100.00;100469.44;5030925;28;20056;-73
2023/04/23 04:51:11;;;;;;;30.38;18.23;;;;;;;8.31;100.00;100468.78;5033327;28;20501;-73
2023/04/23 04:53:37;;;;;;;28.95;19.83;;;;;;;8.30;100.00;100469.75;5050980;28;20064;-74
2023/04/23 04:56:02;;;;;;;29.88;18.92;;;;;;;8.29;100.00;100473.41;5048853;28;20035;-72
2023/04/23 04:58:27;;;;;;;30.15;19.63;;;;;;;8.27;100.00;100477.97;5052549;28;20025;-73
2023/04/23 05:00:54;;;;;;;27.25;17.65;;;;;;;8.28;100.00;100478.88;5050512;28;20127;-73
2023/04/23 05:03:20;;;;;;;33.15;17.35;;;;;;;8.27;100.00;100483.34;5050778;28;20029;-72
2023/04/23 05:05:47;;;;;;;32.00;18.48;;;;;;;8.26;100.00;100484.31;5052529;28;20025;-72
2023/04/23 05:08:15;;;;;;;35.20;19.23;;;;;;;8.27;100.00;100483.34;5050824;28;20025;-73
2023/04/23 05:10:41;;;;;;;28.63;16.92;;;;;;;8.27;100.00;100477.97;5030215;28;20025;-73
2023/04/23 05:13:06;;;;;;;30.85;18.73;;;;;;;8.28;100.00;100474.34;5048432;28;20031;-72
2023/04/23 05:15:32;;;;;;;28.73;18.10;;;;;;;8.32;100.00;100480.38;5047588;28;20103;-74
2023/04/23 05:17:57;;;;;;;30.15;18.88;;;;;;;8.33;100.00;100480.25;5030696;28;20550;-73
2023/04/23 05:20:22;;;;;;;30.98;19.30;;;;;;;8.37;100.00;100471.03;5031445;28;20029;-72
2023/04/23 05:22:47;;;;;;;30.65;18.33;;;;;;;8.43;100.00;100475.09;5050541;28;20073;-73
2023/04/23 05:25:13;;;;;;;31.38;18.58;;;;;;;8.45;100.00;100473.22;5048803;28;20056;-73
2023/04/23 05:27:39;;;;;;;32.28;19.25;;;;;;;8.49;100.00;100476.53;5033073;28;20028;-72
2023/04/23 05:30:07;;;;;;;29.65;18.60;;;;;;;8.51;100.00;100471.94;5033007;28;20021;-73
2023/04/23 05:32:33;;;;;;;29.38;18.35;;;;;;;8.54;100.00;100475.22;5032793;28;20041;-73
2023/04/23 05:35:02;;;;;;;32.25;19.15;;;;;;;8.57;100.00;100482.19;5051795;28;20028;-73
2023/04/23 05:37:28;;;;;;;29.35;17.98;;;;;;;8.63;100.00;100483.59;5027423;28;20467;-73
2023/04/23 05:39:53;;;;;;;30.17;19.13;;;;;;;8.67;100.00;100482.41;5030925;28;20059;-73
2023/04/23 05:42:18;;;;;;;31.75;19.67;;;;;;;8.69;100.00;100484.00;5050468;28;20405;-73
2023/04/23 05:44:44;;;;;;;31.00;18.50;;;;;;;8.72;100.00;100477.56;5046550;28;20541;-73
2023/04/23 05:47:10;;;;;;;36.53;19.90;;;;;;;8.71;100.00;100479.41;5051099;28;20399;-73
2023/04/23 05:49:35;;;;;;;30.90;18.23;;;;;;;8.73;100.00;100474.78;5047581;28;20040;-73
2023/04/23 05:52:02;;;;;;;31.77;18.52;;;;;;;8.74;100.00;100473.81;5031274;28;20456;-73
2023/04/23 05:54:27;;;;;;;30.70;18.70;;;;;;;8.77;100.00;100475.44;5045928;28;20032;-73
2023/04/23 05:56:53;;;;;;;29.40;16.90;;;;;;;8.77;100.00;100472.75;5043483;28;20506;-73
2023/04/23 05:59:18;;;;;;;29.23;18.67;;;;;;;8.78;100.00;100474.44;5050771;28;20399;-73
2023/04/23 06:01:43;;;;;;;29.77;18.42;;;;;;;8.82;100.00;100477.78;5050129;28;20405;-74
2023/04/23 06:04:09;;;;;;;31.20;17.80;;;;;;;8.85;100.00;100474.88;5032865;28;20028;-72
2023/04/23 06:06:34;;;;;;;29.58;18.60;;;;;;;8.88;100.00;100474.66;5050639;28;20025;-73
2023/04/23 06:08:59;;;;;;;30.08;18.05;;;;;;;8.92;100.00;100465.41;5030626;28;20028;-73
2023/04/23 06:11:25;;;;;;;28.80;17.63;;;;;;;8.98;100.00;100466.81;5048059;28;20048;-72
2023/04/23 06:13:50;;;;;;;28.58;17.35;;;;;;;9.01;100.00;100466.56;5028491;28;20021;-73
2023/04/23 06:16:16;;;;;;;28.42;16.95;;;;;;;9.05;100.00;100468.91;5049135;28;20068;-73
2023/04/23 06:18:41;;;;;;;28.08;17.67;;;;;;;9.11;100.00;100462.25;5049260;28;20107;-73
2023/04/23 06:21:07;;;;;;;31.42;17.63;;;;;;;9.16;100.00;100468.13;5047628;28;20063;-73
2023/04/23 06:23:33;;;;;;;29.65;16.17;;;;;;;9.23;100.00;100465.84;5045631;28;20119;-73
2023/04/23 06:25:59;;;;;;;29.50;16.10;;;;;;;9.26;100.00;100449.53;5027039;28;20048;-73
2023/04/23 06:28:25;;;;;;;27.95;17.27;;;;;;;9.31;100.00;100447.34;5032870;28;20032;-73
2023/04/23 06:30:50;;;;;;;26.83;15.57;;;;;;;9.36;100.00;100445.19;5050414;28;20502;-73
2023/04/23 06:33:15;;;;;;;31.42;16.58;;;;;;;9.42;100.00;100444.72;5030430;28;20403;-73
2023/04/23 06:35:41;;;;;;;27.77;16.30;;;;;;;9.48;100.00;100453.31;5031726;28;20179;-73
2023/04/23 06:38:06;;;;;;;32.65;17.48;;;;;;;9.54;100.00;100442.09;5050263;28;20017;-72
2023/04/23 06:40:32;;;;;;;28.95;15.73;;;;;;;9.60;100.00;100441.63;5048506;28;20031;-73
2023/04/23 06:42:58;;;;;;;27.95;16.38;;;;;;;9.65;100.00;100449.31;5044257;28;20090;-74
2023/04/23 06:45:23;;;;;;;28.33;16.10;;;;;;;9.72;100.00;100439.84;5043157;28;20036;-73
2023/04/23 06:47:48;;;;;;;28.75;16.10;;;;;;;9.76;100.00;100450.22;5027200;28;20048;-73
2023/04/23 06:50:14;;;;;;;28.23;15.13;;;;;;;9.80;100.00;100440.13;5046673;28;20060;-73
2023/04/23 06:52:39;;;;;;;25.42;15.07;;;;;;;9.87;100.00;100441.34;5044595;28;20021;-73
2023/04/23 06:55:05;;;;;;;25.25;13.80;;;;;;;9.92;100.00;100443.69;5034015;28;20078;-73
2023/04/23 06:57:31;;;;;;;29.55;14.18;;;;;;;9.97;100.00;100441.47;5051899;28;20172;-73
2023/04/23 06:59:56;;;;;;;26.23;13.38;;;;;;;10.02;100.00;100441.16;5035243;28;20043;-73
2023/04/23 07:02:21;;;;;;;24.35;13.00;;;;;;;10.06;100.00;100431.88;5034202;28;20025;-73
2023/04/23 07:04:47;;;;;;;25.00;12.70;;;;;;;10.10;100.00;100434.22;5052831;28;20025;-73
2023/04/23 07:07:12;;;;;;;29.35;13.70;;;;;;;10.14;100.00;100432.97;5034301;28;20024;-73
2023/04/23 07:09:37;;;;;;;28.88;11.98;;;;;;;10.22;100.00;100435.06;5046805;28;20086;-73
2023/04/23 07:12:03;;;;;;;23.92;11.85;;;;;;;10.27;100.00;100429.34;5032517;28;20024;-74
2023/04/23 07:14:28;;;;;;;23.05;11.15;;;;;;;10.30;100.00;100434.47;5052156;28;20104;-74
2023/04/23 07:16:53;;;;;;;27.45;10.68;;;;;;;10.35;100.00;100426.91;5035259;28;20048;-74
2023/04/23 07:19:19;;;;;;;24.83;11.25;;;;;;;10.42;100.00;100433.50;5034116;28;20082;-73
2023/04/23 07:21:44;;;;;;;24.20;9.55;;;;;;;10.48;100.00;100426.81;5052457;28;20036;-73
2023/04/23 07:24:10;;;;;;;22.58;9.00;;;;;;;10.53;100.00;100432.69;5053164;28;20043;-73
2023/04/23 07:26:36;;;;;;;22.35;8.73;;;;;;;10.60;100.00;100430.34;5035122;28;20052;-73
2023/04/23 07:29:03;;;;;;;22.42;9.55;;;;;;;10.64;100.00;100431.81;5053027;28;20176;-73
2023/04/23 07:31:28;;;;;;;21.85;9.30;;;;;;;10.68;100.00;100425.22;5031485;28;20503;-74
2023/04/23 07:33:55;;;;;;;20.75;8.70;;;;;;;10.76;100.00;100430.84;5053964;28;20037;-74
2023/04/23 07:36:21;;;;;;;24.85;9.73;;;;;;;10.79;100.00;100419.84;5031137;28;20373;-73
2023/04/23 07:38:46;;;;;;;24.30;9.20;;;;;;;10.83;100.00;100425.81;5035692;28;20031;-73
2023/04/23 07:41:11;;;;;;;20.67;8.25;;;;;;;10.88;100.00;100420.03;5035598;28;20084;-74
2023/04/23 07:43:37;;;;;;;21.67;8.30;;;;;;;10.97;100.00;100422.00;5052264;28;20132;-73
2023/04/23 07:46:03;;;;;;;21.52;8.40;;;;;;;11.02;100.00;100415.28;5035715;28;20112;-72
2023/04/23 07:48:29;;;;;;;21.98;8.07;;;;;;;11.09;100.00;100418.28;5053724;28;20036;-74
2023/04/23 07:50:55;;;;;;;22.85;8.35;;;;;;;11.10;100.00;100414.63;5053412;28;20029;-73
2023/04/23 07:53:20;;;;;;;21.88;8.00;;;;;;;11.15;100.00;100417.78;5035489;28;20185;-73
2023/04/23 07:55:46;;;;;;;18.92;7.45;;;;;;;11.21;100.00;100421.78;5034835;28;20048;-75
2023/04/23 07:58:11;;;;;;;21.50;8.13;;;;;;;11.26;100.00;100418.72;5035144;28;20036;-74
2023/04/23 08:00:36;;;;;;;22.50;7.65;;;;;;;11.33;100.00;100414.53;5053337;28;20032;-74
2023/04/23 08:03:01;;;;;;;21.77;7.53;;;;;;;11.40;100.00;100409.50;5033122;28;20041;-74
2023/04/23 08:05:27;;;;;;;20.48;7.40;;;;;;;11.42;100.00;100408.41;5034021;28;20060;-73
2023/04/23 08:07:52;;;;;;;23.13;6.97;;;;;;;11.47;100.00;100411.56;5033201;28;20025;-74
2023/04/23 08:10:17;;;;;;;22.63;6.93;;;;;;;11.51;100.00;100404.94;5033595;28;20029;-77
2023/04/23 08:12:43;;;;;;;23.38;7.55;;;;;;;11.53;100.00;100397.56;5026837;28;20051;-77
2023/04/23 08:15:09;;;;;;;20.42;6.38;;;;;;;11.59;100.00;100404.28;5032708;28;20039;-72
2023/04/23 08:17:35;;;;;;;21.38;6.78;;;;;;;11.67;100.00;100403.63;5031473;28;20407;-77
2023/04/23 08:20:00;;;;;;;23.00;6.28;;;;;;;11.72;100.00;100404.94;5049245;28;20024;-78
2023/04/23 08:22:25;;;;;;;16.98;6.55;;;;;;;11.76;100.00;100396.59;5050900;28;20075;-77
2023/04/23 08:24:50;;;;;;;19.00;6.00;;;;;;;11.81;100.00;100389.81;5034410;28;20083;-73
2023/04/23 08:27:16;;;;;;;22.45;6.55;;;;;;;11.92;100.00;100393.44;5048425;28;20029;-77
2023/04/23 08:29:41;;;;;;;21.23;6.28;;;;;;;11.96;100.00;100384.16;5033125;28;20742;-77
2023/04/23 08:32:06;;;;;;;21.17;6.25;;;;;;;12.03;100.00;100385.31;5051595;28;20059;-78
2023/04/23 08:34:32;;;;;;;19.67;6.07;;;;;;;12.15;100.00;100388.78;5035239;28;20032;-78
2023/04/23 08:36:57;;;;;;;21.15;5.78;;;;;;;12.18;100.00;100385.81;5053095;28;20091;-78
2023/04/23 08:39:22;;;;;;;17.73;4.43;;;;;;;12.23;98.49;100389.81;5053062;28;20396;-78
2023/04/23 08:41:54;;;;;;;18.98;5.68;;;;;;;12.27;98.07;100386.84;5032855;28;20032;-78
2023/04/23 08:44:24;;;;;;;18.77;5.15;;;;;;;12.33;98.51;100379.09;5034425;28;20108;-79
2023/04/23 08:46:52;;;;;;;16.58;5.00;;;;;;;12.35;95.54;100378.97;5024042;28;20048;-78
2023/04/23 08:49:18;;;;;;;12.25;4.22;;;;;;;12.43;98.38;100384.53;5050212;28;20372;-78
2023/04/23 08:51:53;;;;;;;18.02;4.75;;;;;;;12.53;98.02;100380.03;5034170;28;20033;-79
2023/04/23 08:54:30;;;;;;;16.13;4.40;;;;;;;12.60;98.08;100377.63;5034372;28;20039;-79
2023/04/23 08:56:57;;;;;;;13.88;4.47;;;;;;;12.63;96.42;100380.03;5050775;28;20552;-78
2023/04/23 08:59:25;;;;;;;16.05;4.45;;;;;;;12.70;94.26;100383.03;5052154;28;20055;-73
2023/04/23 09:01:51;;;;;;;12.93;3.65;;;;;;;12.73;92.64;100394.41;5035002;28;20522;-77
2023/04/23 09:04:19;;;;;;;16.77;4.20;;;;;;;12.79;93.29;100387.59;5053293;28;20024;-77
2023/04/23 09:06:44;;;;;;;18.52;4.63;;;;;;;12.82;93.66;100381.94;5044572;28;20032;-77
2023/04/23 09:09:11;;;;;;;14.65;4.13;;;;;;;12.86;91.18;100383.38;5053759;28;20033;-77
2023/04/23 09:11:36;;;;;;;15.52;4.07;;;;;;;12.87;91.22;100387.78;5051743;28;20035;-77
2023/04/23 09:14:03;;;;;;;13.30;3.85;;;;;;;12.89;89.97;100388.47;5049617;28;20025;-77
2023/04/23 09:16:29;;;;;;;16.98;4.15;;;;;;;12.91;90.66;100381.13;5030510;28;20028;-77
2023/04/23 09:18:54;;;;;;;12.93;3.35;;;;;;;12.98;89.58;100377.84;5033876;28;20032;-77
2023/04/23 09:21:20;;;;;;;10.77;3.83;;;;;;;12.99;88.24;100372.31;5051091;28;20055;-77
2023/04/23 09:23:45;;;;;;;14.25;4.20;;;;;;;13.04;87.30;100372.72;5051208;28;20105;-76
2023/04/23 09:26:20;;;;;;;10.57;3.22;;;;;;;13.16;89.60;100370.75;5034268;28;20041;-76
2023/04/23 09:28:48;;;;;;;10.25;2.97;;;;;;;13.24;84.86;100370.91;5034820;28;20020;-76
2023/04/23 09:31:14;;;;;;;13.02;3.05;;;;;;;13.36;84.78;100365.41;5050202;28;20028;-76
2023/04/23 09:33:39;;;;;;;17.27;4.03;;;;;;;13.44;82.95;100369.09;5034373;28;20115;-76
2023/04/23 09:36:14;;;;;;;13.25;2.97;;;;;;;13.50;83.11;100358.72;5033669;28;20029;-76
2023/04/23 09:38:42;;;;;;;9.43;3.22;;;;;;;13.60;81.93;100360.41;5043275;28;20032;-77
2023/04/23 09:41:30;;;;;;;15.57;3.30;;;;;;;13.72;85.70;100350.31;5027132;28;20165;-76
2023/04/23 09:43:56;;;;;;;13.15;2.90;;;;;;;13.87;77.09;100353.41;5028567;28;20017;-79
2023/04/23 09:46:37;;;;;;;11.65;2.97;;;;;;;14.01;81.56;100356.63;5043133;28;20041;-78
2023/04/23 09:49:07;;;;;;;12.48;3.05;;;;;;;14.14;77.94;100351.72;5032296;28;20082;-76
2023/04/23 09:51:41;;;;;;;10.85;2.63;;;;;;;14.17;75.67;100362.25;5052720;28;20119;-76
2023/04/23 09:54:20;;;;;;;12.75;3.33;;;;;;;14.20;74.94;100359.25;5034199;28;20119;-76
2023/04/23 09:56:50;;;;;;;12.13;3.47;;;;;;;14.21;77.52;100358.25;5029837;28;20049;-76
2023/04/23 09:59:27;;;;;;;14.18;3.20;;;;;;;14.21;78.56;100352.00;5032976;28;20043;-76
2023/04/23 10:01:53;;;;;;;9.90;2.88;;;;;;;14.24;77.34;100341.75;5048745;28;20024;-77
2023/04/23 10:04:23;;;;;;;10.38;2.72;;;;;;;14.31;75.34;100352.81;5029868;28;20079;-76
2023/04/23 10:07:03;;;;;;;9.13;2.88;;;;;;;14.34;76.82;100352.50;5049851;28;20499;-74
2023/04/23 10:09:29;;;;;;;13.32;3.05;;;;;;;14.39;75.13;100343.94;5029869;28;20124;-75
2023/04/23 10:11:56;;;;;;;10.95;3.03;;;;;;;14.45;74.57;100348.75;5028225;28;20523;-75
2023/04/23 10:14:23;;;;;;;16.00;3.58;;;;;;;14.53;75.41;100338.03;5045847;28;20082;-75
2023/04/23 10:16:56;;;;;;;11.95;3.10;;;;;;;14.60;76.01;100336.44;5047786;28;20508;-75
2023/04/23 10:19:23;;;;;;;10.77;3.22;;;;;;;14.71;77.01;100337.25;5043216;28;20036;-76
2023/04/23 10:21:53;;;;;;;9.25;3.25;;;;;;;14.77;74.48;100336.66;5045336;28;20495;-74
2023/04/23 10:24:20;;;;;;;;;;;;;;;14.80;78.89;100336.34;5045727;28;20029;-76
2023/04/23 10:26:46;;;;;;;12.40;2.97;;;;;;;14.84;74.90;100335.03;5047119;28;19912;-74
2023/04/23 10:29:15;;;;;;;13.00;3.20;;;;;;;14.87;73.93;100336.59;5031676;28;20158;-74
2023/04/23 10:31:41;;;;;;;19.25;4.13;;;;;;;14.86;72.49;100324.91;5028128;28;20024;-74
2023/04/23 10:34:09;;;;;;;13.52;3.85;;;;;;;14.85;73.77;100326.78;5049787;28;20061;-75
2023/04/23 10:36:37;;;;;;;15.48;3.45;;;;;;;14.86;74.13;100335.72;5049251;28;20033;-74
2023/04/23 10:39:07;;;;;;;14.63;3.45;;;;;;;14.84;74.31;100325.06;5030779;28;20044;-74
2023/04/23 10:41:37;;;;;;;12.77;3.85;;;;;;;14.83;75.04;100315.25;5050195;28;20032;-75
2023/04/23 10:44:04;;;;;;;12.43;3.72;;;;;;;14.87;75.72;100326.63;5030990;28;20083;-74
2023/04/23 10:46:31;;;;;;;12.35;3.33;;;;;;;14.88;73.22;100322.06;5030108;28;20188;-74
2023/04/23 10:49:14;;;;;;;13.27;3.55;;;;;;;14.91;75.18;100311.78;5049907;28;20131;-76
2023/04/23 10:51:42;;;;;;;10.20;3.33;;;;;;;14.95;73.31;100310.47;5030976;28;20112;-74
2023/04/23 10:54:10;;;;;;;13.65;3.67;;;;;;;15.00;71.19;100310.84;5050047;28;20021;-74
2023/04/23 10:56:39;;;;;;;12.48;3.63;;;;;;;15.08;71.40;100301.09;5031688;28;20029;-75
2023/04/23 10:59:25;;;;;;;9.15;2.72;;;;;;;15.16;73.00;100293.06;5050005;28;20031;-75
2023/04/23 11:01:51;;;;;;;10.43;3.47;;;;;;;15.27;72.48;100297.38;5041344;28;20042;-75
2023/04/23 11:04:21;;;;;;;18.23;4.38;;;;;;;15.32;74.13;100295.91;5047553;28;20025;-75
2023/04/23 11:06:47;;;;;;;11.18;3.25;;;;;;;15.35;73.11;100281.19;5031762;28;20491;-75
2023/04/23 11:09:31;;;;;;;12.43;3.65;;;;;;;15.35;75.16;100275.78;5031453;28;20101;-74